createdAt,value
2023-01-28T00:16:27.263Z,100755.13
2023-01-28T00:18:55.972Z,100752.37
2023-01-28T00:21:23.805Z,100751.94
2023-01-28T00:23:54.453Z,100749.00
2023-01-28T00:26:23.224Z,100751.10
2023-01-28T00:28:51.368Z,100753.39
2023-01-28T00:31:24.712Z,100752.32
2023-01-28T00:33:52.964Z,100747.02
2023-01-28T00:36:23.682Z,100748.81
2023-01-28T00:38:56.685Z,100748.13
2023-01-28T00:41:25.741Z,100742.00
2023-01-28T00:43:54.915Z,100741.73
2023-01-28T00:46:23.937Z,100748.50
2023-01-28T00:48:51.913Z,100749.64
2023-01-28T00:51:20.766Z,100752.73
2023-01-28T00:53:51.317Z,100756.65
2023-01-28T00:56:19.704Z,100750.54
2023-01-28T00:58:48.085Z,100750.08
2023-01-28T01:01:20.982Z,100743.39
2023-01-28T01:03:57.781Z,100741.59
2023-01-28T01:06:25.856Z,100740.19
2023-01-28T01:08:55.120Z,100736.72
2023-01-28T01:11:22.998Z,100738.37
2023-01-28T01:13:55.227Z,100742.74
2023-01-28T01:16:30.014Z,100737.83
2023-01-28T01:18:58.067Z,100737.79
2023-01-28T01:21:27.486Z,100735.58
2023-01-28T01:23:55.518Z,100740.60
2023-01-28T01:26:23.567Z,100742.52
2023-01-28T01:28:52.417Z,100743.91
2023-01-28T01:31:21.212Z,100745.11
2023-01-28T01:33:50.065Z,100745.38
2023-01-28T01:36:20.024Z,100744.30
2023-01-28T01:38:48.460Z,100747.27
2023-01-28T01:41:24.519Z,100749.40
2023-01-28T01:43:56.501Z,100749.25
2023-01-28T01:46:35.711Z,100747.99
2023-01-28T01:49:11.674Z,100748.33
2023-01-28T01:51:39.810Z,100744.66
2023-01-28T01:54:07.910Z,100737.38
2023-01-28T01:56:39.361Z,100735.12
2023-01-28T01:59:10.504Z,100733.25
2023-01-28T02:01:38.361Z,100725.52
2023-01-28T02:04:09.722Z,100718.36
2023-01-28T02:06:37.839Z,100713.02
2023-01-28T02:09:29.864Z,100710.57
2023-01-28T02:12:10.277Z,100709.42
2023-01-28T02:14:42.185Z,100707.88
2023-01-28T02:17:10.267Z,100705.40
2023-01-28T02:19:49.965Z,100705.92
2023-01-28T02:22:36.486Z,100703.13
2023-01-28T02:25:26.060Z,100702.95
2023-01-28T02:28:15.839Z,100709.50
2023-01-28T02:31:06.700Z,100712.17
2023-01-28T02:33:50.057Z,100713.07
2023-01-28T02:37:06.363Z,100710.52
2023-01-28T02:39:41.458Z,100706.14
2023-01-28T02:42:13.726Z,100710.64
2023-01-28T02:44:41.808Z,100707.80
2023-01-28T02:47:29.776Z,100708.73
2023-01-28T02:49:59.654Z,100703.97
2023-01-28T02:53:10.745Z,100700.91
2023-01-28T02:55:47.203Z,100695.66
2023-01-28T02:58:27.272Z,100703.04
2023-01-28T03:01:23.157Z,100701.73
2023-01-28T03:04:01.882Z,100705.77
2023-01-28T03:06:38.839Z,100706.25
2023-01-28T03:09:23.760Z,100705.56
2023-01-28T03:12:23.819Z,100702.45
2023-01-28T03:15:15.386Z,100708.32
2023-01-28T03:18:04.912Z,100703.92
2023-01-28T03:21:06.146Z,100703.52
2023-01-28T03:24:24.421Z,100697.27
2023-01-28T03:27:43.879Z,100700.14
2023-01-28T03:30:41.037Z,100698.20
2023-01-28T03:33:31.483Z,100704.52
2023-01-28T03:36:18.650Z,100704.14
2023-01-28T03:38:48.481Z,100698.02
2023-01-28T03:41:23.609Z,100703.30
2023-01-28T03:43:51.892Z,100703.66
2023-01-28T03:46:19.819Z,100705.04
2023-01-28T03:48:48.472Z,100704.55
2023-01-28T08:05:51.708Z,100764.23
2023-01-28T08:08:19.740Z,100757.67
2023-01-28T08:10:47.746Z,100759.75
2023-01-28T08:13:17.041Z,100763.84
2023-01-28T08:15:45.146Z,100765.56
2023-01-28T08:18:13.978Z,100770.27
2023-01-28T08:20:43.636Z,100769.69
2023-01-28T08:23:13.135Z,100768.11
2023-01-28T08:25:41.008Z,100769.88
2023-01-28T08:28:09.587Z,100764.14
2023-01-28T08:30:38.843Z,100761.33
2023-01-28T08:33:08.145Z,100760.83
2023-01-28T08:35:37.024Z,100760.66
2023-01-28T08:38:06.442Z,100758.29
2023-01-28T08:40:35.138Z,100753.61
2023-01-28T08:43:03.621Z,100753.23
2023-01-28T08:45:32.252Z,100751.72
2023-01-28T08:48:07.158Z,100748.95
2023-01-28T08:50:36.630Z,100745.92
2023-01-28T08:53:06.612Z,100751.52
2023-01-28T08:55:34.718Z,100745.02
2023-01-28T08:58:10.352Z,100743.75
2023-01-28T09:00:39.129Z,100741.21
2023-01-28T09:03:07.188Z,100736.42
2023-01-28T09:05:38.118Z,100737.29
2023-01-28T09:08:08.147Z,100734.89
2023-01-28T09:10:37.621Z,100732.36
2023-01-28T09:13:06.868Z,100731.77
2023-01-28T09:15:35.023Z,100726.06
2023-01-28T09:18:02.911Z,100722.53
2023-01-28T09:20:32.384Z,100722.08
2023-01-28T09:23:00.800Z,100720.64
2023-01-28T09:25:28.923Z,100720.11
2023-01-28T09:27:57.633Z,100720.30
2023-01-28T09:30:26.072Z,100720.59
2023-01-28T09:32:54.551Z,100715.73
2023-01-28T09:35:22.881Z,100710.50
2023-01-28T09:37:52.149Z,100703.92
2023-01-28T09:40:24.418Z,100697.57
2023-01-28T09:42:59.773Z,100693.72
2023-01-28T09:45:38.782Z,100691.54
2023-01-28T09:48:07.193Z,100690.55
2023-01-28T09:50:37.031Z,100693.77
2023-01-28T09:53:32.258Z,100693.70
2023-01-28T09:56:05.536Z,100693.70
2023-01-28T09:58:33.701Z,100687.19
2023-01-28T10:01:23.693Z,100682.88
2023-01-28T10:04:03.107Z,100683.73
2023-01-28T10:06:53.012Z,100685.25
2023-01-28T10:09:41.310Z,100688.89
2023-01-28T10:12:37.407Z,100688.94
2023-01-28T10:15:20.949Z,100682.88
2023-01-28T10:17:50.694Z,100689.27
2023-01-28T10:20:25.441Z,100686.14
2023-01-28T10:23:19.567Z,100684.39
2023-01-28T10:25:49.658Z,100684.13
2023-01-28T10:28:28.275Z,100680.45
2023-01-28T10:30:56.348Z,100682.91
2023-01-28T10:33:27.426Z,100678.80
2023-01-28T10:35:58.843Z,100679.92
2023-01-28T10:38:27.200Z,100679.82
2023-01-28T10:40:58.444Z,100677.13
2023-01-28T10:43:26.911Z,100670.77
2023-01-28T10:46:14.806Z,100667.17
2023-01-28T10:48:43.866Z,100657.40
2023-01-28T10:51:11.842Z,100650.17
2023-01-28T10:53:48.861Z,100646.61
2023-01-28T10:56:28.588Z,100644.33
2023-01-28T10:59:16.062Z,100638.00
2023-01-28T11:01:57.277Z,100633.68
2023-01-28T11:04:27.360Z,100631.89
2023-01-28T11:07:06.724Z,100632.20
2023-01-28T11:09:37.207Z,100626.44
2023-01-28T11:12:21.049Z,100627.45
2023-01-28T11:15:05.146Z,100624.73
2023-01-28T11:17:35.537Z,100621.88
2023-01-28T11:20:12.049Z,100616.78
2023-01-28T11:22:42.327Z,100618.23
2023-01-28T11:25:27.915Z,100617.90
2023-01-28T11:27:55.909Z,100615.30
2023-01-28T11:30:32.616Z,100613.14
2023-01-28T11:33:31.251Z,100616.30
2023-01-28T11:36:12.146Z,100616.20
2023-01-28T11:39:13.966Z,100613.76
2023-01-28T11:41:41.870Z,100613.05
2023-01-28T11:44:23.857Z,100621.63
2023-01-28T11:47:13.781Z,100616.91
2023-01-28T11:49:47.712Z,100617.53
2023-01-28T11:52:55.227Z,100617.42
2023-01-28T11:55:40.749Z,100610.45
2023-01-28T11:58:25.449Z,100606.09
2023-01-28T16:32:03.208Z,100609.37
2023-01-28T16:34:32.135Z,100606.98
2023-01-28T16:38:41.083Z,100601.70
2023-01-28T16:41:24.612Z,100608.41
2023-01-28T16:43:53.077Z,100609.30
2023-01-28T16:46:21.301Z,100611.08
2023-01-28T16:48:55.152Z,100612.84
2023-01-28T16:51:23.130Z,100616.35
2023-01-28T16:53:51.212Z,100615.77
2023-01-28T16:56:45.576Z,100614.04
2023-01-28T17:00:49.871Z,100611.73
2023-01-28T17:03:17.742Z,100615.17
2023-01-28T17:05:46.408Z,100616.48
2023-01-28T17:08:14.639Z,100611.17
2023-01-28T17:10:43.700Z,100612.80
2023-01-28T17:13:11.728Z,100614.27
2023-01-28T17:15:39.692Z,100618.73
2023-01-28T17:18:09.964Z,100620.90
2023-01-28T17:20:40.439Z,100616.47
2023-01-28T17:23:09.268Z,100616.39
2023-01-28T17:25:41.183Z,100620.47
2023-01-28T17:28:09.359Z,100619.18
2023-01-28T17:30:41.498Z,100619.52
2023-01-28T17:33:09.801Z,100621.67
2023-01-28T17:35:37.869Z,100617.23
2023-01-28T17:38:06.152Z,100615.36
2023-01-28T17:40:35.726Z,100613.55
2023-01-28T17:43:03.777Z,100614.16
2023-01-28T17:45:33.066Z,100614.55
2023-01-28T17:48:01.086Z,100615.96
2023-01-28T17:50:28.997Z,100613.55
2023-01-28T17:52:58.012Z,100615.80
2023-01-28T17:55:26.245Z,100613.56
2023-01-28T17:57:56.367Z,100612.38
2023-01-28T18:00:26.253Z,100611.88
2023-01-28T18:02:54.433Z,100611.40
2023-01-28T18:05:22.414Z,100616.88
2023-01-28T18:07:52.529Z,100618.04
2023-01-28T18:10:27.121Z,100616.02
2023-01-28T18:12:56.753Z,100613.94
2023-01-28T18:15:25.367Z,100616.33
2023-01-28T18:17:53.203Z,100619.09
2023-01-28T18:20:21.389Z,100624.88
2023-01-28T18:22:50.490Z,100619.85
2023-01-28T18:25:20.386Z,100621.61
2023-01-28T18:27:48.542Z,100621.30
2023-01-28T18:30:16.971Z,100623.08
2023-01-28T18:32:44.812Z,100624.86
2023-01-28T18:35:12.722Z,100631.72
2023-01-28T18:37:40.640Z,100630.95
2023-01-28T18:40:09.760Z,100632.27
2023-01-28T18:42:37.915Z,100634.09
2023-01-28T18:45:11.257Z,100639.54
2023-01-28T18:47:39.128Z,100640.76
2023-01-28T18:50:08.035Z,100638.85
2023-01-28T18:52:38.287Z,100635.77
2023-01-28T18:55:07.148Z,100641.20
2023-01-28T18:57:35.064Z,100638.80
2023-01-28T19:00:03.630Z,100635.57
2023-01-28T19:02:32.134Z,100640.33
2023-01-28T19:05:00.230Z,100639.89
2023-01-28T19:07:30.353Z,100638.20
2023-01-28T19:09:58.881Z,100637.73
2023-01-28T19:12:26.711Z,100640.73
2023-01-28T19:14:54.817Z,100636.81
2023-01-28T19:17:23.560Z,100632.85
2023-01-28T19:19:51.576Z,100626.60
2023-01-28T19:22:19.644Z,100627.10
2023-01-28T19:24:47.659Z,100624.65
2023-01-28T19:27:15.787Z,100625.17
2023-01-28T19:29:44.555Z,100629.08
2023-01-28T19:32:12.566Z,100628.44
2023-01-28T19:34:40.584Z,100631.27
2023-01-28T19:37:09.216Z,100635.34
2023-01-28T19:39:37.321Z,100639.54
2023-01-28T19:42:05.643Z,100638.17
2023-01-28T23:55:43.981Z,100600.80
2023-01-28T23:58:11.965Z,100600.11
